sensor_id;sensor_type;location;lat;lon;timestamp;P1;durP1;ratioP1;P2;durP2;ratioP2
50495;SDS011;38806;51.554;5.704;2024-02-21T00:00:51;20.63;;;8.25;;
50495;SDS011;38806;51.554;5.704;2024-02-21T00:02:51;16.65;;;8.48;;
50495;SDS011;38806;51.554;5.704;2024-02-21T00:04:52;24.63;;;10.80;;
50495;SDS011;38806;51.554;5.704;2024-02-21T00:06:52;21.95;;;8.73;;
50495;SDS011;38806;51.554;5.704;2024-02-21T00:08:52;21.02;;;9.88;;
50495;SDS011;38806;51.554;5.704;2024-02-21T00:10:52;25.58;;;9.68;;
50495;SDS011;38806;51.554;5.704;2024-02-21T00:12:52;25.42;;;11.65;;
50495;SDS011;38806;51.554;5.704;2024-02-21T00:14:52;17.90;;;8.85;;
50495;SDS011;38806;51.554;5.704;2024-02-21T00:16:53;34.63;;;9.15;;
50495;SDS011;38806;51.554;5.704;2024-02-21T00:18:53;19.23;;;8.75;;
50495;SDS011;38806;51.554;5.704;2024-02-21T00:20:53;17.65;;;8.77;;
50495;SDS011;38806;51.554;5.704;2024-02-21T00:22:54;17.10;;;9.05;;
50495;SDS011;38806;51.554;5.704;2024-02-21T00:24:55;21.02;;;8.15;;
50495;SDS011;38806;51.554;5.704;2024-02-21T00:26:55;20.27;;;8.73;;
50495;SDS011;38806;51.554;5.704;2024-02-21T00:28:55;20.60;;;8.55;;
50495;SDS011;38806;51.554;5.704;2024-02-21T00:30:55;19.85;;;8.88;;
50495;SDS011;38806;51.554;5.704;2024-02-21T00:32:55;22.55;;;8.80;;
50495;SDS011;38806;51.554;5.704;2024-02-21T00:34:56;19.48;;;8.88;;
50495;SDS011;38806;51.554;5.704;2024-02-21T00:36:56;19.42;;;8.10;;
50495;SDS011;38806;51.554;5.704;2024-02-21T00:38:56;15.02;;;8.38;;
50495;SDS011;38806;51.554;5.704;2024-02-21T00:40:56;19.05;;;9.52;;
50495;SDS011;38806;51.554;5.704;2024-02-21T00:42:56;22.33;;;8.00;;
50495;SDS011;38806;51.554;5.704;2024-02-21T00:44:56;18.88;;;9.15;;
50495;SDS011;38806;51.554;5.704;2024-02-21T00:46:57;21.83;;;8.00;;
50495;SDS011;38806;51.554;5.704;2024-02-21T00:48:57;20.40;;;9.25;;
50495;SDS011;38806;51.554;5.704;2024-02-21T00:50:57;18.73;;;9.65;;
50495;SDS011;38806;51.554;5.704;2024-02-21T00:52:58;20.15;;;8.55;;
50495;SDS011;38806;51.554;5.704;2024-02-21T00:54:58;18.42;;;8.95;;
50495;SDS011;38806;51.554;5.704;2024-02-21T00:56:58;20.20;;;6.50;;
50495;SDS011;38806;51.554;5.704;2024-02-21T00:58:58;20.55;;;8.68;;
50495;SDS011;38806;51.554;5.704;2024-02-21T01:01:00;23.33;;;10.25;;
50495;SDS011;38806;51.554;5.704;2024-02-21T01:03:00;19.92;;;8.80;;
50495;SDS011;38806;51.554;5.704;2024-02-21T01:05:00;19.52;;;10.15;;
50495;SDS011;38806;51.554;5.704;2024-02-21T01:07:01;15.65;;;7.93;;
50495;SDS011;38806;51.554;5.704;2024-02-21T01:09:01;21.33;;;9.35;;
50495;SDS011;38806;51.554;5.704;2024-02-21T01:11:01;18.42;;;8.80;;
50495;SDS011;38806;51.554;5.704;2024-02-21T01:13:02;17.50;;;9.00;;
50495;SDS011;38806;51.554;5.704;2024-02-21T01:15:02;21.85;;;8.57;;
50495;SDS011;38806;51.554;5.704;2024-02-21T01:17:02;17.38;;;10.13;;
50495;SDS011;38806;51.554;5.704;2024-02-21T01:19:02;17.67;;;8.73;;
50495;SDS011;38806;51.554;5.704;2024-02-21T01:21:03;15.68;;;8.25;;
50495;SDS011;38806;51.554;5.704;2024-02-21T01:23:06;22.48;;;8.90;;
50495;SDS011;38806;51.554;5.704;2024-02-21T01:25:07;19.20;;;7.90;;
50495;SDS011;38806;51.554;5.704;2024-02-21T01:27:07;18.27;;;9.77;;
50495;SDS011;38806;51.554;5.704;2024-02-21T01:29:07;19.52;;;9.30;;
50495;SDS011;38806;51.554;5.704;2024-02-21T01:31:08;24.13;;;8.98;;
50495;SDS011;38806;51.554;5.704;2024-02-21T01:33:08;17.70;;;7.53;;
50495;SDS011;38806;51.554;5.704;2024-02-21T01:35:08;16.50;;;8.20;;
50495;SDS011;38806;51.554;5.704;2024-02-21T01:37:08;15.60;;;8.25;;
50495;SDS011;38806;51.554;5.704;2024-02-21T01:39:09;21.73;;;8.82;;
50495;SDS011;38806;51.554;5.704;2024-02-21T01:41:09;15.43;;;8.10;;
50495;SDS011;38806;51.554;5.704;2024-02-21T01:43:19;15.43;;;7.55;;
50495;SDS011;38806;51.554;5.704;2024-02-21T01:45:19;15.32;;;9.35;;
50495;SDS011;38806;51.554;5.704;2024-02-21T01:47:19;15.13;;;7.82;;
50495;SDS011;38806;51.554;5.704;2024-02-21T01:49:20;21.65;;;8.45;;
50495;SDS011;38806;51.554;5.704;2024-02-21T01:51:21;21.50;;;8.77;;
50495;SDS011;38806;51.554;5.704;2024-02-21T01:53:29;23.15;;;8.43;;
50495;SDS011;38806;51.554;5.704;2024-02-21T01:55:29;16.50;;;7.70;;
50495;SDS011;38806;51.554;5.704;2024-02-21T01:57:29;12.05;;;6.45;;
50495;SDS011;38806;51.554;5.704;2024-02-21T01:59:30;16.77;;;8.10;;
50495;SDS011;38806;51.554;5.704;2024-02-21T02:01:30;15.07;;;6.90;;
50495;SDS011;38806;51.554;5.704;2024-02-21T02:03:30;15.20;;;7.47;;
50495;SDS011;38806;51.554;5.704;2024-02-21T02:05:31;13.15;;;7.03;;
50495;SDS011;38806;51.554;5.704;2024-02-21T02:07:31;16.77;;;6.88;;
50495;SDS011;38806;51.554;5.704;2024-02-21T02:09:31;12.35;;;7.35;;
50495;SDS011;38806;51.554;5.704;2024-02-21T02:11:31;17.98;;;7.88;;
50495;SDS011;38806;51.554;5.704;2024-02-21T02:13:32;13.82;;;7.05;;
50495;SDS011;38806;51.554;5.704;2024-02-21T02:15:41;13.65;;;6.53;;
50495;SDS011;38806;51.554;5.704;2024-02-21T02:17:42;21.90;;;8.23;;
50495;SDS011;38806;51.554;5.704;2024-02-21T02:19:42;12.32;;;5.80;;
50495;SDS011;38806;51.554;5.704;2024-02-21T02:21:45;14.23;;;6.20;;
50495;SDS011;38806;51.554;5.704;2024-02-21T02:23:46;16.83;;;6.32;;
50495;SDS011;38806;51.554;5.704;2024-02-21T02:25:46;23.38;;;7.43;;
50495;SDS011;38806;51.554;5.704;2024-02-21T02:27:49;13.57;;;6.63;;
50495;SDS011;38806;51.554;5.704;2024-02-21T02:29:49;13.70;;;6.40;;
50495;SDS011;38806;51.554;5.704;2024-02-21T02:31:49;19.25;;;6.70;;
50495;SDS011;38806;51.554;5.704;2024-02-21T02:33:49;16.52;;;7.00;;
50495;SDS011;38806;51.554;5.704;2024-02-21T02:35:50;15.73;;;6.82;;
50495;SDS011;38806;51.554;5.704;2024-02-21T02:37:50;12.23;;;6.20;;
50495;SDS011;38806;51.554;5.704;2024-02-21T02:39:50;13.43;;;5.53;;
50495;SDS011;38806;51.554;5.704;2024-02-21T02:41:51;17.70;;;5.78;;
50495;SDS011;38806;51.554;5.704;2024-02-21T02:43:51;19.38;;;6.05;;
50495;SDS011;38806;51.554;5.704;2024-02-21T02:45:51;11.43;;;5.63;;
50495;SDS011;38806;51.554;5.704;2024-02-21T02:47:52;21.33;;;6.63;;
50495;SDS011;38806;51.554;5.704;2024-02-21T02:49:53;22.98;;;7.70;;
50495;SDS011;38806;51.554;5.704;2024-02-21T02:51:53;11.52;;;5.75;;
50495;SDS011;38806;51.554;5.704;2024-02-21T02:53:54;10.02;;;5.45;;
50495;SDS011;38806;51.554;5.704;2024-02-21T02:55:54;12.55;;;7.32;;
50495;SDS011;38806;51.554;5.704;2024-02-21T02:57:54;15.05;;;5.72;;
50495;SDS011;38806;51.554;5.704;2024-02-21T02:59:55;15.68;;;6.72;;
50495;SDS011;38806;51.554;5.704;2024-02-21T03:01:56;16.70;;;6.45;;
50495;SDS011;38806;51.554;5.704;2024-02-21T03:03:56;15.35;;;6.20;;
50495;SDS011;38806;51.554;5.704;2024-02-21T03:05:56;19.52;;;7.05;;
50495;SDS011;38806;51.554;5.704;2024-02-21T03:07:56;16.42;;;6.95;;
50495;SDS011;38806;51.554;5.704;2024-02-21T03:09:56;13.95;;;5.78;;
50495;SDS011;38806;51.554;5.704;2024-02-21T03:11:57;12.80;;;5.45;;
50495;SDS011;38806;51.554;5.704;2024-02-21T03:14:02;12.45;;;5.43;;
50495;SDS011;38806;51.554;5.704;2024-02-21T03:16:02;16.30;;;5.32;;
50495;SDS011;38806;51.554;5.704;2024-02-21T03:18:03;11.90;;;4.70;;
50495;SDS011;38806;51.554;5.704;2024-02-21T03:20:03;13.27;;;5.43;;
50495;SDS011;38806;51.554;5.704;2024-02-21T03:22:09;11.35;;;6.15;;
50495;SDS011;38806;51.554;5.704;2024-02-21T03:24:09;16.30;;;5.82;;
50495;SDS011;38806;51.554;5.704;2024-02-21T03:26:10;10.43;;;6.07;;
50495;SDS011;38806;51.554;5.704;2024-02-21T03:28:10;9.43;;;4.97;;
50495;SDS011;38806;51.554;5.704;2024-02-21T03:30:10;9.20;;;5.80;;
50495;SDS011;38806;51.554;5.704;2024-02-21T03:32:10;13.48;;;5.40;;
50495;SDS011;38806;51.554;5.704;2024-02-21T03:34:11;14.18;;;6.50;;
50495;SDS011;38806;51.554;5.704;2024-02-21T03:36:14;15.43;;;5.30;;
50495;SDS011;38806;51.554;5.704;2024-02-21T03:38:15;13.02;;;5.10;;
50495;SDS011;38806;51.554;5.704;2024-02-21T03:40:15;15.93;;;6.00;;
50495;SDS011;38806;51.554;5.704;2024-02-21T03:42:15;9.35;;;4.68;;
50495;SDS011;38806;51.554;5.704;2024-02-21T03:44:15;12.40;;;6.22;;
50495;SDS011;38806;51.554;5.704;2024-02-21T03:46:16;13.48;;;4.68;;
50495;SDS011;38806;51.554;5.704;2024-02-21T03:48:16;12.82;;;4.95;;
50495;SDS011;38806;51.554;5.704;2024-02-21T03:50:16;15.30;;;5.55;;
50495;SDS011;38806;51.554;5.704;2024-02-21T03:52:16;14.02;;;4.43;;
50495;SDS011;38806;51.554;5.704;2024-02-21T03:54:16;10.30;;;4.97;;
50495;SDS011;38806;51.554;5.704;2024-02-21T03:56:17;11.32;;;5.28;;
50495;SDS011;38806;51.554;5.704;2024-02-21T03:58:17;12.38;;;5.25;;
50495;SDS011;38806;51.554;5.704;2024-02-21T04:00:17;9.07;;;3.88;;
50495;SDS011;38806;51.554;5.704;2024-02-21T04:02:18;12.20;;;5.13;;
50495;SDS011;38806;51.554;5.704;2024-02-21T04:04:18;12.68;;;5.32;;
50495;SDS011;38806;51.554;5.704;2024-02-21T04:06:18;16.52;;;4.70;;
50495;SDS011;38806;51.554;5.704;2024-02-21T04:08:19;9.48;;;4.47;;
50495;SDS011;38806;51.554;5.704;2024-02-21T04:10:19;10.65;;;4.55;;
50495;SDS011;38806;51.554;5.704;2024-02-21T04:12:19;9.95;;;4.65;;
50495;SDS011;38806;51.554;5.704;2024-02-21T04:14:19;14.50;;;6.22;;
50495;SDS011;38806;51.554;5.704;2024-02-21T04:16:19;11.30;;;5.95;;
50495;SDS011;38806;51.554;5.704;2024-02-21T04:18:19;13.80;;;5.43;;
50495;SDS011;38806;51.554;5.704;2024-02-21T04:20:20;10.23;;;4.47;;
50495;SDS011;38806;51.554;5.704;2024-02-21T04:22:20;11.80;;;5.43;;
50495;SDS011;38806;51.554;5.704;2024-02-21T04:24:20;9.85;;;5.70;;
50495;SDS011;38806;51.554;5.704;2024-02-21T04:26:20;14.30;;;6.28;;
50495;SDS011;38806;51.554;5.704;2024-02-21T04:28:20;18.83;;;7.72;;
50495;SDS011;38806;51.554;5.704;2024-02-21T04:30:20;12.70;;;7.60;;
50495;SDS011;38806;51.554;5.704;2024-02-21T04:32:21;14.30;;;5.55;;
50495;SDS011;38806;51.554;5.704;2024-02-21T04:34:21;13.68;;;5.95;;
50495;SDS011;38806;51.554;5.704;2024-02-21T04:36:21;14.52;;;6.93;;
50495;SDS011;38806;51.554;5.704;2024-02-21T04:38:21;16.13;;;6.40;;
50495;SDS011;38806;51.554;5.704;2024-02-21T04:40:21;15.00;;;5.78;;
50495;SDS011;38806;51.554;5.704;2024-02-21T04:42:22;16.50;;;7.60;;
50495;SDS011;38806;51.554;5.704;2024-02-21T04:44:22;13.02;;;6.88;;
50495;SDS011;38806;51.554;5.704;2024-02-21T04:46:22;15.60;;;6.70;;
50495;SDS011;38806;51.554;5.704;2024-02-21T04:48:22;16.35;;;6.95;;
50495;SDS011;38806;51.554;5.704;2024-02-21T04:50:22;12.95;;;8.07;;
50495;SDS011;38806;51.554;5.704;2024-02-21T04:52:23;24.95;;;7.82;;
50495;SDS011;38806;51.554;5.704;2024-02-21T04:54:23;15.82;;;7.32;;
50495;SDS011;38806;51.554;5.704;2024-02-21T04:56:23;13.02;;;7.75;;
50495;SDS011;38806;51.554;5.704;2024-02-21T04:58:23;18.67;;;7.88;;
50495;SDS011;38806;51.554;5.704;2024-02-21T05:00:23;14.60;;;8.27;;
50495;SDS011;38806;51.554;5.704;2024-02-21T05:02:24;19.10;;;9.88;;
50495;SDS011;38806;51.554;5.704;2024-02-21T05:04:24;22.33;;;9.13;;
50495;SDS011;38806;51.554;5.704;2024-02-21T05:06:24;15.45;;;7.50;;
50495;SDS011;38806;51.554;5.704;2024-02-21T05:08:24;16.20;;;7.93;;
50495;SDS011;38806;51.554;5.704;2024-02-21T05:10:25;17.55;;;7.97;;
50495;SDS011;38806;51.554;5.704;2024-02-21T05:12:25;17.38;;;7.90;;
50495;SDS011;38806;51.554;5.704;2024-02-21T05:14:25;15.95;;;7.80;;
50495;SDS011;38806;51.554;5.704;2024-02-21T05:16:26;15.70;;;6.95;;
50495;SDS011;38806;51.554;5.704;2024-02-21T05:18:27;24.38;;;8.50;;
50495;SDS011;38806;51.554;5.704;2024-02-21T05:20:28;16.73;;;7.28;;
50495;SDS011;38806;51.554;5.704;2024-02-21T05:22:28;16.13;;;7.60;;
50495;SDS011;38806;51.554;5.704;2024-02-21T05:24:28;26.77;;;9.85;;
50495;SDS011;38806;51.554;5.704;2024-02-21T05:26:29;19.35;;;8.32;;
50495;SDS011;38806;51.554;5.704;2024-02-21T05:28:30;21.27;;;8.60;;
50495;SDS011;38806;51.554;5.704;2024-02-21T05:30:30;18.55;;;6.65;;
50495;SDS011;38806;51.554;5.704;2024-02-21T05:32:30;52.95;;;11.45;;
50495;SDS011;38806;51.554;5.704;2024-02-21T05:34:30;24.10;;;10.35;;
50495;SDS011;38806;51.554;5.704;2024-02-21T05:36:30;17.88;;;7.22;;
50495;SDS011;38806;51.554;5.704;2024-02-21T05:38:31;21.63;;;8.52;;
50495;SDS011;38806;51.554;5.704;2024-02-21T05:40:31;19.63;;;8.95;;
50495;SDS011;38806;51.554;5.704;2024-02-21T05:42:31;18.80;;;8.30;;
50495;SDS011;38806;51.554;5.704;2024-02-21T05:44:32;21.08;;;8.77;;
50495;SDS011;38806;51.554;5.704;2024-02-21T05:46:32;17.92;;;7.88;;
50495;SDS011;38806;51.554;5.704;2024-02-21T05:48:32;22.02;;;9.40;;
50495;SDS011;38806;51.554;5.704;2024-02-21T05:50:32;16.90;;;8.25;;
50495;SDS011;38806;51.554;5.704;2024-02-21T05:52:33;17.65;;;8.77;;
50495;SDS011;38806;51.554;5.704;2024-02-21T05:54:33;19.60;;;8.88;;
50495;SDS011;38806;51.554;5.704;2024-02-21T05:56:33;20.60;;;8.63;;
50495;SDS011;38806;51.554;5.704;2024-02-21T05:58:33;22.65;;;8.80;;
50495;SDS011;38806;51.554;5.704;2024-02-21T06:00:34;21.85;;;10.13;;
50495;SDS011;38806;51.554;5.704;2024-02-21T06:02:35;13.43;;;7.97;;
50495;SDS011;38806;51.554;5.704;2024-02-21T06:04:36;16.00;;;8.30;;
50495;SDS011;38806;51.554;5.704;2024-02-21T06:06:36;16.70;;;7.95;;
50495;SDS011;38806;51.554;5.704;2024-02-21T06:08:36;22.33;;;9.48;;
50495;SDS011;38806;51.554;5.704;2024-02-21T06:10:36;18.60;;;9.32;;
50495;SDS011;38806;51.554;5.704;2024-02-21T06:12:37;21.23;;;9.02;;
50495;SDS011;38806;51.554;5.704;2024-02-21T06:14:37;18.27;;;8.13;;
50495;SDS011;38806;51.554;5.704;2024-02-21T06:16:37;14.70;;;6.60;;
50495;SDS011;38806;51.554;5.704;2024-02-21T06:18:37;20.02;;;7.30;;
50495;SDS011;38806;51.554;5.704;2024-02-21T06:20:37;16.27;;;8.25;;
50495;SDS011;38806;51.554;5.704;2024-02-21T06:22:40;18.75;;;8.43;;
50495;SDS011;38806;51.554;5.704;2024-02-21T06:24:40;15.00;;;7.85;;
50495;SDS011;38806;51.554;5.704;2024-02-21T06:26:40;19.98;;;7.93;;
50495;SDS011;38806;51.554;5.704;2024-02-21T06:28:40;20.60;;;8.55;;
50495;SDS011;38806;51.554;5.704;2024-02-21T06:30:41;15.43;;;7.95;;
50495;SDS011;38806;51.554;5.704;2024-02-21T06:32:41;18.67;;;9.10;;
50495;SDS011;38806;51.554;5.704;2024-02-21T06:34:41;13.95;;;7.80;;
50495;SDS011;38806;51.554;5.704;2024-02-21T06:36:42;18.20;;;8.02;;
50495;SDS011;38806;51.554;5.704;2024-02-21T06:38:42;18.80;;;7.15;;
50495;SDS011;38806;51.554;5.704;2024-02-21T06:40:42;14.52;;;7.95;;
50495;SDS011;38806;51.554;5.704;2024-02-21T06:42:49;21.17;;;7.50;;
50495;SDS011;38806;51.554;5.704;2024-02-21T06:44:49;16.65;;;8.10;;
50495;SDS011;38806;51.554;5.704;2024-02-21T06:46:49;18.33;;;8.35;;
50495;SDS011;38806;51.554;5.704;2024-02-21T06:48:49;18.75;;;7.68;;
50495;SDS011;38806;51.554;5.704;2024-02-21T06:50:49;22.00;;;8.10;;
50495;SDS011;38806;51.554;5.704;2024-02-21T06:52:50;20.77;;;7.88;;
50495;SDS011;38806;51.554;5.704;2024-02-21T06:54:50;20.20;;;8.20;;
50495;SDS011;38806;51.554;5.704;2024-02-21T06:56:50;19.83;;;8.50;;
50495;SDS011;38806;51.554;5.704;2024-02-21T06:58:50;24.90;;;10.43;;
50495;SDS011;38806;51.554;5.704;2024-02-21T07:00:51;16.48;;;7.90;;
50495;SDS011;38806;51.554;5.704;2024-02-21T07:02:51;20.15;;;8.20;;
50495;SDS011;38806;51.554;5.704;2024-02-21T07:04:51;16.42;;;8.25;;
50495;SDS011;38806;51.554;5.704;2024-02-21T07:06:51;22.30;;;8.38;;
50495;SDS011;38806;51.554;5.704;2024-02-21T07:08:51;18.38;;;7.35;;
50495;SDS011;38806;51.554;5.704;2024-02-21T07:10:52;15.82;;;8.35;;
50495;SDS011;38806;51.554;5.704;2024-02-21T07:12:52;14.40;;;7.90;;
50495;SDS011;38806;51.554;5.704;2024-02-21T07:14:52;16.40;;;8.13;;
50495;SDS011;38806;51.554;5.704;2024-02-21T07:16:53;17.50;;;8.43;;
50495;SDS011;38806;51.554;5.704;2024-02-21T07:18:54;23.92;;;8.88;;
50495;SDS011;38806;51.554;5.704;2024-02-21T07:20:54;21.17;;;8.00;;
50495;SDS011;38806;51.554;5.704;2024-02-21T07:22:55;20.40;;;10.02;;
50495;SDS011;38806;51.554;5.704;2024-02-21T07:24:55;16.70;;;8.13;;
50495;SDS011;38806;51.554;5.704;2024-02-21T07:26:55;19.23;;;7.93;;
50495;SDS011;38806;51.554;5.704;2024-02-21T07:28:56;18.25;;;9.63;;
50495;SDS011;38806;51.554;5.704;2024-02-21T07:30:58;19.83;;;9.43;;
50495;SDS011;38806;51.554;5.704;2024-02-21T07:32:58;16.92;;;6.78;;
50495;SDS011;38806;51.554;5.704;2024-02-21T07:34:58;16.63;;;7.95;;
50495;SDS011;38806;51.554;5.704;2024-02-21T07:36:59;23.77;;;13.40;;
50495;SDS011;38806;51.554;5.704;2024-02-21T07:38:59;17.95;;;8.98;;
50495;SDS011;38806;51.554;5.704;2024-02-21T07:40:59;15.52;;;8.98;;
50495;SDS011;38806;51.554;5.704;2024-02-21T07:42:59;20.55;;;9.50;;
50495;SDS011;38806;51.554;5.704;2024-02-21T07:44:59;17.13;;;9.25;;
50495;SDS011;38806;51.554;5.704;2024-02-21T07:47:00;20.02;;;11.25;;
50495;SDS011;38806;51.554;5.704;2024-02-21T07:49:00;22.02;;;8.05;;
50495;SDS011;38806;51.554;5.704;2024-02-21T07:51:00;15.35;;;8.23;;
50495;SDS011;38806;51.554;5.704;2024-02-21T07:53:00;26.20;;;9.20;;
50495;SDS011;38806;51.554;5.704;2024-02-21T07:55:01;18.25;;;9.60;;
50495;SDS011;38806;51.554;5.704;2024-02-21T07:57:01;14.15;;;7.63;;
50495;SDS011;38806;51.554;5.704;2024-02-21T07:59:01;18.23;;;9.32;;
50495;SDS011;38806;51.554;5.704;2024-02-21T08:01:01;16.92;;;7.90;;
50495;SDS011;38806;51.554;5.704;2024-02-21T08:03:01;14.77;;;6.68;;
50495;SDS011;38806;51.554;5.704;2024-02-21T08:05:02;19.77;;;8.50;;
50495;SDS011;38806;51.554;5.704;2024-02-21T08:07:03;14.70;;;8.23;;
50495;SDS011;38806;51.554;5.704;2024-02-21T08:09:04;14.63;;;8.00;;
50495;SDS011;38806;51.554;5.704;2024-02-21T08:11:04;15.55;;;7.53;;
50495;SDS011;38806;51.554;5.704;2024-02-21T08:13:04;18.50;;;7.40;;
50495;SDS011;38806;51.554;5.704;2024-02-21T08:15:05;17.20;;;7.35;;
50495;SDS011;38806;51.554;5.704;2024-02-21T08:17:05;11.25;;;7.00;;
50495;SDS011;38806;51.554;5.704;2024-02-21T08:19:05;14.30;;;6.72;;
50495;SDS011;38806;51.554;5.704;2024-02-21T08:21:05;14.43;;;7.35;;
50495;SDS011;38806;51.554;5.704;2024-02-21T08:23:05;18.45;;;6.15;;
50495;SDS011;38806;51.554;5.704;2024-02-21T08:25:06;12.75;;;7.38;;
50495;SDS011;38806;51.554;5.704;2024-02-21T08:27:06;14.07;;;6.97;;
50495;SDS011;38806;51.554;5.704;2024-02-21T08:29:06;11.70;;;6.38;;
50495;SDS011;38806;51.554;5.704;2024-02-21T08:31:06;14.60;;;6.63;;
50495;SDS011;38806;51.554;5.704;2024-02-21T08:33:07;12.88;;;6.03;;
50495;SDS011;38806;51.554;5.704;2024-02-21T08:35:07;11.57;;;6.82;;
50495;SDS011;38806;51.554;5.704;2024-02-21T08:37:07;13.73;;;5.30;;
50495;SDS011;38806;51.554;5.704;2024-02-21T08:39:08;8.93;;;5.63;;
50495;SDS011;38806;51.554;5.704;2024-02-21T08:41:09;16.08;;;6.75;;
50495;SDS011;38806;51.554;5.704;2024-02-21T08:43:09;11.45;;;5.38;;
50495;SDS011;38806;51.554;5.704;2024-02-21T08:45:10;11.40;;;6.03;;
50495;SDS011;38806;51.554;5.704;2024-02-21T08:47:10;13.20;;;5.93;;
50495;SDS011;38806;51.554;5.704;2024-02-21T08:49:10;19.83;;;5.20;;
50495;SDS011;38806;51.554;5.704;2024-02-21T08:51:11;15.50;;;6.57;;
50495;SDS011;38806;51.554;5.704;2024-02-21T08:53:11;12.48;;;5.75;;
50495;SDS011;38806;51.554;5.704;2024-02-21T08:55:13;10.50;;;4.57;;
50495;SDS011;38806;51.554;5.704;2024-02-21T08:57:13;12.68;;;6.38;;
50495;SDS011;38806;51.554;5.704;2024-02-21T08:59:13;14.32;;;6.60;;
50495;SDS011;38806;51.554;5.704;2024-02-21T09:01:15;12.68;;;6.22;;
50495;SDS011;38806;51.554;5.704;2024-02-21T09:03:15;13.35;;;6.32;;
50495;SDS011;38806;51.554;5.704;2024-02-21T09:05:15;12.73;;;6.40;;
50495;SDS011;38806;51.554;5.704;2024-02-21T09:07:15;9.65;;;5.55;;
50495;SDS011;38806;51.554;5.704;2024-02-21T09:09:15;9.45;;;5.78;;
50495;SDS011;38806;51.554;5.704;2024-02-21T09:11:16;12.55;;;4.68;;
50495;SDS011;38806;51.554;5.704;2024-02-21T09:13:16;11.05;;;6.32;;
50495;SDS011;38806;51.554;5.704;2024-02-21T09:15:16;7.97;;;4.93;;
50495;SDS011;38806;51.554;5.704;2024-02-21T09:17:18;15.15;;;6.22;;
50495;SDS011;38806;51.554;5.704;2024-02-21T09:19:20;10.73;;;5.18;;
50495;SDS011;38806;51.554;5.704;2024-02-21T09:21:21;10.93;;;4.60;;
50495;SDS011;38806;51.554;5.704;2024-02-21T09:23:23;10.38;;;5.00;;
50495;SDS011;38806;51.554;5.704;2024-02-21T09:25:24;9.02;;;4.22;;
50495;SDS011;38806;51.554;5.704;2024-02-21T09:27:24;9.07;;;4.82;;
50495;SDS011;38806;51.554;5.704;2024-02-21T09:29:25;15.52;;;4.82;;
50495;SDS011;38806;51.554;5.704;2024-02-21T09:31:26;11.95;;;5.28;;
50495;SDS011;38806;51.554;5.704;2024-02-21T09:33:27;10.93;;;5.57;;
50495;SDS011;38806;51.554;5.704;2024-02-21T09:35:28;13.73;;;5.72;;
50495;SDS011;38806;51.554;5.704;2024-02-21T09:37:28;17.67;;;6.70;;
50495;SDS011;38806;51.554;5.704;2024-02-21T09:39:29;14.38;;;7.00;;
50495;SDS011;38806;51.554;5.704;2024-02-21T09:41:29;13.00;;;6.55;;
50495;SDS011;38806;51.554;5.704;2024-02-21T09:43:30;12.77;;;6.65;;
50495;SDS011;38806;51.554;5.704;2024-02-21T09:45:31;14.68;;;7.13;;
50495;SDS011;38806;51.554;5.704;2024-02-21T09:47:37;13.18;;;6.45;;
50495;SDS011;38806;51.554;5.704;2024-02-21T09:49:39;11.38;;;7.30;;
50495;SDS011;38806;51.554;5.704;2024-02-21T09:51:40;14.80;;;6.22;;
50495;SDS011;38806;51.554;5.704;2024-02-21T09:53:41;12.50;;;6.45;;
50495;SDS011;38806;51.554;5.704;2024-02-21T09:55:43;11.45;;;5.80;;
50495;SDS011;38806;51.554;5.704;2024-02-21T09:57:44;11.68;;;7.20;;
50495;SDS011;38806;51.554;5.704;2024-02-21T09:59:44;20.02;;;6.93;;
50495;SDS011;38806;51.554;5.704;2024-02-21T10:01:45;12.35;;;6.18;;
50495;SDS011;38806;51.554;5.704;2024-02-21T10:03:50;9.68;;;5.40;;
50495;SDS011;38806;51.554;5.704;2024-02-21T10:05:50;16.63;;;6.87;;
50495;SDS011;38806;51.554;5.704;2024-02-21T10:07:50;14.73;;;6.20;;
50495;SDS011;38806;51.554;5.704;2024-02-21T10:10:00;11.68;;;6.47;;
50495;SDS011;38806;51.554;5.704;2024-02-21T10:12:10;11.15;;;5.22;;
50495;SDS011;38806;51.554;5.704;2024-02-21T10:14:10;15.98;;;6.82;;
50495;SDS011;38806;51.554;5.704;2024-02-21T10:16:10;11.05;;;5.78;;
50495;SDS011;38806;51.554;5.704;2024-02-21T10:18:11;11.95;;;7.10;;
50495;SDS011;38806;51.554;5.704;2024-02-21T10:20:11;13.80;;;5.95;;
50495;SDS011;38806;51.554;5.704;2024-02-21T10:22:11;12.32;;;5.45;;
50495;SDS011;38806;51.554;5.704;2024-02-21T10:24:12;10.20;;;5.17;;
50495;SDS011;38806;51.554;5.704;2024-02-21T10:26:12;9.90;;;5.15;;
50495;SDS011;38806;51.554;5.704;2024-02-21T10:28:13;12.77;;;5.25;;
50495;SDS011;38806;51.554;5.704;2024-02-21T10:30:14;13.68;;;5.50;;
50495;SDS011;38806;51.554;5.704;2024-02-21T10:32:14;8.50;;;5.00;;
50495;SDS011;38806;51.554;5.704;2024-02-21T10:34:16;7.85;;;5.15;;
50495;SDS011;38806;51.554;5.704;2024-02-21T10:36:16;15.45;;;5.00;;
50495;SDS011;38806;51.554;5.704;2024-02-21T10:38:16;12.05;;;4.28;;
50495;SDS011;38806;51.554;5.704;2024-02-21T10:40:17;16.52;;;5.78;;
50495;SDS011;38806;51.554;5.704;2024-02-21T10:42:17;10.80;;;6.00;;
50495;SDS011;38806;51.554;5.704;2024-02-21T10:44:21;13.82;;;5.22;;
50495;SDS011;38806;51.554;5.704;2024-02-21T10:46:22;10.88;;;5.30;;
50495;SDS011;38806;51.554;5.704;2024-02-21T10:48:24;11.35;;;4.40;;
50495;SDS011;38806;51.554;5.704;2024-02-21T10:50:29;14.43;;;4.78;;
50495;SDS011;38806;51.554;5.704;2024-02-21T10:52:44;14.45;;;6.63;;
50495;SDS011;38806;51.554;5.704;2024-02-21T10:54:52;7.30;;;3.70;;
50495;SDS011;38806;51.554;5.704;2024-02-21T10:56:53;11.63;;;5.10;;
50495;SDS011;38806;51.554;5.704;2024-02-21T10:59:00;8.52;;;3.80;;
50495;SDS011;38806;51.554;5.704;2024-02-21T11:01:02;12.20;;;4.68;;
50495;SDS011;38806;51.554;5.704;2024-02-21T11:03:03;10.30;;;4.88;;
50495;SDS011;38806;51.554;5.704;2024-02-21T11:05:04;10.95;;;5.00;;
50495;SDS011;38806;51.554;5.704;2024-02-21T11:07:05;9.50;;;5.05;;
50495;SDS011;38806;51.554;5.704;2024-02-21T11:09:06;14.25;;;4.82;;
50495;SDS011;38806;51.554;5.704;2024-02-21T11:11:07;7.82;;;3.70;;
50495;SDS011;38806;51.554;5.704;2024-02-21T11:13:08;10.52;;;5.00;;
50495;SDS011;38806;51.554;5.704;2024-02-21T11:15:08;12.85;;;5.70;;
50495;SDS011;38806;51.554;5.704;2024-02-21T11:17:15;9.30;;;4.38;;
50495;SDS011;38806;51.554;5.704;2024-02-21T11:19:20;11.82;;;5.03;;
50495;SDS011;38806;51.554;5.704;2024-02-21T11:21:21;10.80;;;4.88;;
50495;SDS011;38806;51.554;5.704;2024-02-21T11:23:32;12.60;;;5.20;;
50495;SDS011;38806;51.554;5.704;2024-02-21T11:25:32;13.43;;;4.63;;
50495;SDS011;38806;51.554;5.704;2024-02-21T11:27:33;9.70;;;5.13;;
50495;SDS011;38806;51.554;5.704;2024-02-21T11:29:39;14.85;;;6.60;;
50495;SDS011;38806;51.554;5.704;2024-02-21T11:31:41;10.57;;;5.95;;
50495;SDS011;38806;51.554;5.704;2024-02-21T11:33:42;12.73;;;5.20;;
50495;SDS011;38806;51.554;5.704;2024-02-21T11:35:43;8.77;;;4.93;;
50495;SDS011;38806;51.554;5.704;2024-02-21T11:37:43;10.50;;;5.32;;
50495;SDS011;38806;51.554;5.704;2024-02-21T11:39:45;8.55;;;4.40;;
50495;SDS011;38806;51.554;5.704;2024-02-21T11:41:46;14.45;;;5.30;;
50495;SDS011;38806;51.554;5.704;2024-02-21T11:43:48;11.48;;;4.57;;
50495;SDS011;38806;51.554;5.704;2024-02-21T11:45:48;14.73;;;4.72;;
50495;SDS011;38806;51.554;5.704;2024-02-21T11:47:48;18.47;;;4.80;;
50495;SDS011;38806;51.554;5.704;2024-02-21T11:49:49;10.82;;;4.15;;
50495;SDS011;38806;51.554;5.704;2024-02-21T11:52:00;9.95;;;4.65;;
50495;SDS011;38806;51.554;5.704;2024-02-21T11:54:00;16.50;;;5.35;;
50495;SDS011;38806;51.554;5.704;2024-02-21T11:56:01;7.03;;;3.90;;
50495;SDS011;38806;51.554;5.704;2024-02-21T11:58:01;7.50;;;4.05;;